sensor_id;sensor_type;location;lat;lon;timestamp;temperature;humidity
31837;DHT22;18401;49.344;6.240;2023-03-16T00:01:11;-0.40;99.90
31837;DHT22;18401;49.344;6.240;2023-03-16T00:03:37;-0.30;99.90
31837;DHT22;18401;49.344;6.240;2023-03-16T00:06:03;-0.10;99.90
31837;DHT22;18401;49.344;6.240;2023-03-16T00:08:28;0.00;99.90
31837;DHT22;18401;49.344;6.240;2023-03-16T00:10:54;0.00;99.90
31837;DHT22;18401;49.344;6.240;2023-03-16T00:13:22;-0.10;99.90
31837;DHT22;18401;49.344;6.240;2023-03-16T00:15:50;-0.10;99.90
31837;DHT22;18401;49.344;6.240;2023-03-16T00:18:16;0.00;99.90
31837;DHT22;18401;49.344;6.240;2023-03-16T00:20:42;0.00;99.90
31837;DHT22;18401;49.344;6.240;2023-03-16T00:23:07;0.00;99.90
31837;DHT22;18401;49.344;6.240;2023-03-16T00:25:33;-0.10;99.90
31837;DHT22;18401;49.344;6.240;2023-03-16T00:27:59;-0.30;99.90
31837;DHT22;18401;49.344;6.240;2023-03-16T00:30:31;-0.30;99.90
31837;DHT22;18401;49.344;6.240;2023-03-16T00:32:57;-0.30;99.90
31837;DHT22;18401;49.344;6.240;2023-03-16T00:35:23;-0.30;99.90
31837;DHT22;18401;49.344;6.240;2023-03-16T00:37:49;-0.40;99.90
31837;DHT22;18401;49.344;6.240;2023-03-16T00:40:15;-0.50;99.90
31837;DHT22;18401;49.344;6.240;2023-03-16T00:42:41;-0.50;99.90
31837;DHT22;18401;49.344;6.240;2023-03-16T00:45:07;-0.60;99.90
31837;DHT22;18401;49.344;6.240;2023-03-16T00:47:34;-0.60;99.90
31837;DHT22;18401;49.344;6.240;2023-03-16T00:50:00;-0.60;99.90
31837;DHT22;18401;49.344;6.240;2023-03-16T00:52:27;-0.60;99.90
31837;DHT22;18401;49.344;6.240;2023-03-16T00:54:54;-0.60;99.90
31837;DHT22;18401;49.344;6.240;2023-03-16T00:57:22;-0.60;99.90
31837;DHT22;18401;49.344;6.240;2023-03-16T00:59:49;-0.60;99.90
31837;DHT22;18401;49.344;6.240;2023-03-16T01:02:16;-0.60;99.90
31837;DHT22;18401;49.344;6.240;2023-03-16T01:04:43;-0.50;99.90
31837;DHT22;18401;49.344;6.240;2023-03-16T01:07:11;-0.50;99.90
31837;DHT22;18401;49.344;6.240;2023-03-16T01:09:41;-0.40;99.90
31837;DHT22;18401;49.344;6.240;2023-03-16T01:12:09;-0.30;99.90
31837;DHT22;18401;49.344;6.240;2023-03-16T01:14:36;-0.30;99.90
31837;DHT22;18401;49.344;6.240;2023-03-16T01:17:04;-0.40;99.90
31837;DHT22;18401;49.344;6.240;2023-03-16T01:19:30;-0.40;99.90
31837;DHT22;18401;49.344;6.240;2023-03-16T01:22:00;-0.40;99.90
31837;DHT22;18401;49.344;6.240;2023-03-16T01:24:27;-0.30;99.90
31837;DHT22;18401;49.344;6.240;2023-03-16T01:26:53;-0.30;99.90
31837;DHT22;18401;49.344;6.240;2023-03-16T01:29:18;-0.30;99.90
31837;DHT22;18401;49.344;6.240;2023-03-16T01:31:44;-0.30;99.90
31837;DHT22;18401;49.344;6.240;2023-03-16T01:34:10;-0.30;99.90
31837;DHT22;18401;49.344;6.240;2023-03-16T01:36:41;-0.40;99.90
31837;DHT22;18401;49.344;6.240;2023-03-16T01:39:09;-0.40;99.90
31837;DHT22;18401;49.344;6.240;2023-03-16T01:41:36;-0.40;99.90
31837;DHT22;18401;49.344;6.240;2023-03-16T01:44:01;-0.40;99.90
31837;DHT22;18401;49.344;6.240;2023-03-16T01:46:28;-0.40;99.90
31837;DHT22;18401;49.344;6.240;2023-03-16T01:49:28;-0.30;99.90
31837;DHT22;18401;49.344;6.240;2023-03-16T01:51:57;-0.30;99.90
31837;DHT22;18401;49.344;6.240;2023-03-16T01:54:44;-0.30;99.90
31837;DHT22;18401;49.344;6.240;2023-03-16T01:57:20;-0.30;99.90
31837;DHT22;18401;49.344;6.240;2023-03-16T02:02:15;-0.20;99.90
31837;DHT22;18401;49.344;6.240;2023-03-16T02:05:03;-0.20;99.90
31837;DHT22;18401;49.344;6.240;2023-03-16T02:07:35;-0.20;99.90
31837;DHT22;18401;49.344;6.240;2023-03-16T02:10:03;-0.30;99.90
31837;DHT22;18401;49.344;6.240;2023-03-16T02:12:30;-0.30;99.90
31837;DHT22;18401;49.344;6.240;2023-03-16T02:14:56;-0.40;99.90
31837;DHT22;18401;49.344;6.240;2023-03-16T02:17:24;-0.40;99.90
31837;DHT22;18401;49.344;6.240;2023-03-16T02:20:09;-0.50;99.90
31837;DHT22;18401;49.344;6.240;2023-03-16T02:22:43;-0.50;99.90
31837;DHT22;18401;49.344;6.240;2023-03-16T02:25:12;-0.50;99.90
31837;DHT22;18401;49.344;6.240;2023-03-16T02:30:20;-0.40;99.90
31837;DHT22;18401;49.344;6.240;2023-03-16T02:32:48;-0.20;99.90
31837;DHT22;18401;49.344;6.240;2023-03-16T02:35:17;-0.20;99.90
31837;DHT22;18401;49.344;6.240;2023-03-16T02:37:43;-0.10;99.90
31837;DHT22;18401;49.344;6.240;2023-03-16T02:42:53;-0.10;99.90
31837;DHT22;18401;49.344;6.240;2023-03-16T02:45:22;-0.10;99.90
31837;DHT22;18401;49.344;6.240;2023-03-16T02:47:48;-0.10;99.90
31837;DHT22;18401;49.344;6.240;2023-03-16T02:50:16;-0.10;99.90
31837;DHT22;18401;49.344;6.240;2023-03-16T02:52:42;-0.10;99.90
31837;DHT22;18401;49.344;6.240;2023-03-16T02:55:08;-0.10;99.90
31837;DHT22;18401;49.344;6.240;2023-03-16T02:57:34;-0.10;99.90
31837;DHT22;18401;49.344;6.240;2023-03-16T02:59:59;-0.10;99.90
31837;DHT22;18401;49.344;6.240;2023-03-16T03:02:26;-0.10;99.90
31837;DHT22;18401;49.344;6.240;2023-03-16T03:04:51;-0.10;99.90
31837;DHT22;18401;49.344;6.240;2023-03-16T03:07:19;-0.10;99.90
31837;DHT22;18401;49.344;6.240;2023-03-16T03:09:45;0.00;99.90
31837;DHT22;18401;49.344;6.240;2023-03-16T03:12:11;0.00;99.90
31837;DHT22;18401;49.344;6.240;2023-03-16T03:14:38;0.00;99.90
31837;DHT22;18401;49.344;6.240;2023-03-16T03:17:05;0.10;99.90
31837;DHT22;18401;49.344;6.240;2023-03-16T03:19:32;0.10;99.90
31837;DHT22;18401;49.344;6.240;2023-03-16T03:21:59;0.10;99.90
31837;DHT22;18401;49.344;6.240;2023-03-16T03:24:24;0.10;99.90
31837;DHT22;18401;49.344;6.240;2023-03-16T03:26:52;0.20;99.90
31837;DHT22;18401;49.344;6.240;2023-03-16T03:29:18;0.30;99.90
31837;DHT22;18401;49.344;6.240;2023-03-16T03:31:44;0.20;99.90
31837;DHT22;18401;49.344;6.240;2023-03-16T03:34:10;0.20;99.90
31837;DHT22;18401;49.344;6.240;2023-03-16T03:36:36;0.20;99.90
31837;DHT22;18401;49.344;6.240;2023-03-16T03:39:02;0.30;99.90
31837;DHT22;18401;49.344;6.240;2023-03-16T03:41:31;0.30;99.90
31837;DHT22;18401;49.344;6.240;2023-03-16T03:43:58;0.20;99.90
31837;DHT22;18401;49.344;6.240;2023-03-16T03:46:24;0.20;99.90
31837;DHT22;18401;49.344;6.240;2023-03-16T03:48:50;0.20;99.90
31837;DHT22;18401;49.344;6.240;2023-03-16T03:51:16;0.30;99.90
31837;DHT22;18401;49.344;6.240;2023-03-16T03:53:41;0.30;99.90
31837;DHT22;18401;49.344;6.240;2023-03-16T03:56:07;0.20;99.90
31837;DHT22;18401;49.344;6.240;2023-03-16T03:58:33;0.20;99.90
31837;DHT22;18401;49.344;6.240;2023-03-16T04:00:59;0.30;99.90
31837;DHT22;18401;49.344;6.240;2023-03-16T04:03:25;0.30;99.90
31837;DHT22;18401;49.344;6.240;2023-03-16T04:05:50;0.30;99.90
31837;DHT22;18401;49.344;6.240;2023-03-16T04:08:16;0.40;99.90
31837;DHT22;18401;49.344;6.240;2023-03-16T04:10:42;0.40;99.90
31837;DHT22;18401;49.344;6.240;2023-03-16T04:13:09;0.50;99.90
31837;DHT22;18401;49.344;6.240;2023-03-16T04:15:35;0.60;99.90
31837;DHT22;18401;49.344;6.240;2023-03-16T04:18:03;0.60;99.90
31837;DHT22;18401;49.344;6.240;2023-03-16T04:20:28;0.60;99.90
31837;DHT22;18401;49.344;6.240;2023-03-16T04:22:54;0.70;99.90
31837;DHT22;18401;49.344;6.240;2023-03-16T04:25:24;0.70;99.90
31837;DHT22;18401;49.344;6.240;2023-03-16T04:27:51;0.60;99.90
31837;DHT22;18401;49.344;6.240;2023-03-16T04:30:17;0.60;99.90
31837;DHT22;18401;49.344;6.240;2023-03-16T04:32:42;0.50;99.90
31837;DHT22;18401;49.344;6.240;2023-03-16T04:35:09;0.50;99.90
31837;DHT22;18401;49.344;6.240;2023-03-16T04:37:35;0.50;99.90
31837;DHT22;18401;49.344;6.240;2023-03-16T04:40:01;0.50;99.90
31837;DHT22;18401;49.344;6.240;2023-03-16T04:42:34;0.50;99.90
31837;DHT22;18401;49.344;6.240;2023-03-16T04:45:00;0.50;99.90
31837;DHT22;18401;49.344;6.240;2023-03-16T04:47:26;0.50;99.90
31837;DHT22;18401;49.344;6.240;2023-03-16T04:49:51;0.40;99.90
31837;DHT22;18401;49.344;6.240;2023-03-16T04:52:18;0.50;99.90
31837;DHT22;18401;49.344;6.240;2023-03-16T04:54:43;0.50;99.90
31837;DHT22;18401;49.344;6.240;2023-03-16T04:57:10;0.60;99.90
31837;DHT22;18401;49.344;6.240;2023-03-16T04:59:35;0.60;99.90
31837;DHT22;18401;49.344;6.240;2023-03-16T05:02:01;0.60;99.90
31837;DHT22;18401;49.344;6.240;2023-03-16T05:04:26;0.70;99.90
31837;DHT22;18401;49.344;6.240;2023-03-16T05:06:52;0.70;99.90
31837;DHT22;18401;49.344;6.240;2023-03-16T05:09:18;0.70;99.90
31837;DHT22;18401;49.344;6.240;2023-03-16T05:11:45;0.70;99.90
31837;DHT22;18401;49.344;6.240;2023-03-16T05:14:10;0.70;99.90
31837;DHT22;18401;49.344;6.240;2023-03-16T05:16:36;0.80;99.90
31837;DHT22;18401;49.344;6.240;2023-03-16T05:19:02;0.80;99.90
31837;DHT22;18401;49.344;6.240;2023-03-16T05:21:29;0.90;99.90
31837;DHT22;18401;49.344;6.240;2023-03-16T05:23:56;0.90;99.90
31837;DHT22;18401;49.344;6.240;2023-03-16T05:26:22;0.90;99.90
31837;DHT22;18401;49.344;6.240;2023-03-16T05:28:50;0.90;99.90
31837;DHT22;18401;49.344;6.240;2023-03-16T05:31:16;0.90;99.90
31837;DHT22;18401;49.344;6.240;2023-03-16T05:33:42;0.80;99.90
31837;DHT22;18401;49.344;6.240;2023-03-16T05:36:09;0.80;99.90
31837;DHT22;18401;49.344;6.240;2023-03-16T05:38:35;0.80;99.90
31837;DHT22;18401;49.344;6.240;2023-03-16T05:41:01;0.80;99.90
31837;DHT22;18401;49.344;6.240;2023-03-16T05:43:29;0.80;99.90
31837;DHT22;18401;49.344;6.240;2023-03-16T05:45:55;0.80;99.90
31837;DHT22;18401;49.344;6.240;2023-03-16T05:48:21;0.80;99.90
31837;DHT22;18401;49.344;6.240;2023-03-16T05:50:46;0.80;99.90
31837;DHT22;18401;49.344;6.240;2023-03-16T05:53:12;0.70;99.90
31837;DHT22;18401;49.344;6.240;2023-03-16T05:55:39;0.80;99.90
31837;DHT22;18401;49.344;6.240;2023-03-16T05:58:05;0.70;99.90
31837;DHT22;18401;49.344;6.240;2023-03-16T06:00:31;0.80;99.90
31837;DHT22;18401;49.344;6.240;2023-03-16T06:02:57;0.80;99.90
31837;DHT22;18401;49.344;6.240;2023-03-16T06:05:23;0.70;99.90
31837;DHT22;18401;49.344;6.240;2023-03-16T06:07:50;0.80;99.90
31837;DHT22;18401;49.344;6.240;2023-03-16T06:10:17;0.70;99.90
31837;DHT22;18401;49.344;6.240;2023-03-16T06:12:43;0.70;99.90
31837;DHT22;18401;49.344;6.240;2023-03-16T06:15:09;0.70;99.90
31837;DHT22;18401;49.344;6.240;2023-03-16T06:17:36;0.70;99.90
31837;DHT22;18401;49.344;6.240;2023-03-16T06:20:04;0.70;99.90
31837;DHT22;18401;49.344;6.240;2023-03-16T06:22:35;0.80;99.90
31837;DHT22;18401;49.344;6.240;2023-03-16T06:25:01;0.90;99.90
31837;DHT22;18401;49.344;6.240;2023-03-16T06:27:27;1.00;99.90
31837;DHT22;18401;49.344;6.240;2023-03-16T06:29:53;1.20;99.90
31837;DHT22;18401;49.344;6.240;2023-03-16T06:32:18;1.40;99.90
31837;DHT22;18401;49.344;6.240;2023-03-16T06:34:44;1.50;99.90
31837;DHT22;18401;49.344;6.240;2023-03-16T06:37:10;1.70;99.90
31837;DHT22;18401;49.344;6.240;2023-03-16T06:39:35;1.90;99.90
31837;DHT22;18401;49.344;6.240;2023-03-16T06:42:01;2.00;99.90
31837;DHT22;18401;49.344;6.240;2023-03-16T06:44:28;2.20;99.90
31837;DHT22;18401;49.344;6.240;2023-03-16T06:46:54;2.20;99.90
31837;DHT22;18401;49.344;6.240;2023-03-16T06:49:20;2.30;99.90
31837;DHT22;18401;49.344;6.240;2023-03-16T06:51:46;2.30;99.90
31837;DHT22;18401;49.344;6.240;2023-03-16T06:54:12;2.30;99.90
31837;DHT22;18401;49.344;6.240;2023-03-16T06:56:37;2.40;99.90
31837;DHT22;18401;49.344;6.240;2023-03-16T06:59:03;2.50;99.90
31837;DHT22;18401;49.344;6.240;2023-03-16T07:01:29;2.70;99.90
31837;DHT22;18401;49.344;6.240;2023-03-16T07:03:54;2.80;99.90
31837;DHT22;18401;49.344;6.240;2023-03-16T07:06:20;3.00;99.90
31837;DHT22;18401;49.344;6.240;2023-03-16T07:08:46;3.10;99.90
31837;DHT22;18401;49.344;6.240;2023-03-16T07:11:12;3.30;99.90
31837;DHT22;18401;49.344;6.240;2023-03-16T07:13:39;3.40;99.90
31837;DHT22;18401;49.344;6.240;2023-03-16T07:16:05;3.40;99.90
31837;DHT22;18401;49.344;6.240;2023-03-16T07:18:31;3.50;99.90
31837;DHT22;18401;49.344;6.240;2023-03-16T07:20:57;3.60;99.90
31837;DHT22;18401;49.344;6.240;2023-03-16T07:23:23;3.60;99.90
31837;DHT22;18401;49.344;6.240;2023-03-16T07:25:49;3.60;99.90
31837;DHT22;18401;49.344;6.240;2023-03-16T07:28:17;3.60;99.90
31837;DHT22;18401;49.344;6.240;2023-03-16T07:30:44;3.80;99.90
31837;DHT22;18401;49.344;6.240;2023-03-16T07:33:10;3.90;99.90
31837;DHT22;18401;49.344;6.240;2023-03-16T07:35:36;4.00;99.90
31837;DHT22;18401;49.344;6.240;2023-03-16T07:38:02;4.10;99.90
31837;DHT22;18401;49.344;6.240;2023-03-16T07:40:28;4.20;99.90
31837;DHT22;18401;49.344;6.240;2023-03-16T07:42:54;4.30;99.90
31837;DHT22;18401;49.344;6.240;2023-03-16T07:45:20;4.40;99.90
31837;DHT22;18401;49.344;6.240;2023-03-16T07:47:46;4.40;99.90
31837;DHT22;18401;49.344;6.240;2023-03-16T07:50:11;4.50;99.90
31837;DHT22;18401;49.344;6.240;2023-03-16T07:52:39;4.50;99.90
31837;DHT22;18401;49.344;6.240;2023-03-16T07:55:05;4.70;99.90
31837;DHT22;18401;49.344;6.240;2023-03-16T07:57:31;4.80;99.90
31837;DHT22;18401;49.344;6.240;2023-03-16T07:59:57;5.10;99.90
31837;DHT22;18401;49.344;6.240;2023-03-16T08:02:23;5.20;99.90
31837;DHT22;18401;49.344;6.240;2023-03-16T08:04:49;5.20;99.90
31837;DHT22;18401;49.344;6.240;2023-03-16T08:07:16;5.30;99.90
31837;DHT22;18401;49.344;6.240;2023-03-16T08:09:42;5.50;99.90
31837;DHT22;18401;49.344;6.240;2023-03-16T08:12:08;5.60;99.90
31837;DHT22;18401;49.344;6.240;2023-03-16T08:14:34;5.70;99.90
31837;DHT22;18401;49.344;6.240;2023-03-16T08:17:01;5.80;99.90
31837;DHT22;18401;49.344;6.240;2023-03-16T08:19:27;6.00;99.90
31837;DHT22;18401;49.344;6.240;2023-03-16T08:21:53;6.10;99.90
31837;DHT22;18401;49.344;6.240;2023-03-16T08:24:19;6.20;99.90
31837;DHT22;18401;49.344;6.240;2023-03-16T08:26:45;6.30;99.90
31837;DHT22;18401;49.344;6.240;2023-03-16T08:29:12;6.60;99.90
31837;DHT22;18401;49.344;6.240;2023-03-16T08:31:38;7.00;99.90
31837;DHT22;18401;49.344;6.240;2023-03-16T08:34:04;7.20;99.90
31837;DHT22;18401;49.344;6.240;2023-03-16T08:36:30;7.40;99.90
31837;DHT22;18401;49.344;6.240;2023-03-16T08:38:56;7.60;99.90
31837;DHT22;18401;49.344;6.240;2023-03-16T08:41:22;7.90;99.90
31837;DHT22;18401;49.344;6.240;2023-03-16T08:43:48;8.20;99.90
31837;DHT22;18401;49.344;6.240;2023-03-16T08:46:14;8.50;99.90
31837;DHT22;18401;49.344;6.240;2023-03-16T08:48:40;8.40;99.90
31837;DHT22;18401;49.344;6.240;2023-03-16T08:51:08;8.10;99.90
31837;DHT22;18401;49.344;6.240;2023-03-16T08:53:35;7.80;99.90
31837;DHT22;18401;49.344;6.240;2023-03-16T08:56:09;7.80;99.90
31837;DHT22;18401;49.344;6.240;2023-03-16T08:58:37;7.90;99.90
31837;DHT22;18401;49.344;6.240;2023-03-16T09:01:04;8.10;99.90
31837;DHT22;18401;49.344;6.240;2023-03-16T09:03:31;8.40;99.90
31837;DHT22;18401;49.344;6.240;2023-03-16T09:06:02;8.60;99.90
31837;DHT22;18401;49.344;6.240;2023-03-16T09:08:28;8.80;99.90
31837;DHT22;18401;49.344;6.240;2023-03-16T09:11:08;8.60;99.90
31837;DHT22;18401;49.344;6.240;2023-03-16T09:13:36;8.40;99.90
31837;DHT22;18401;49.344;6.240;2023-03-16T09:16:03;8.30;99.90
31837;DHT22;18401;49.344;6.240;2023-03-16T09:18:30;8.30;99.90
31837;DHT22;18401;49.344;6.240;2023-03-16T09:21:00;8.40;99.90
31837;DHT22;18401;49.344;6.240;2023-03-16T09:23:27;8.60;99.90
31837;DHT22;18401;49.344;6.240;2023-03-16T09:25:57;8.70;99.90
31837;DHT22;18401;49.344;6.240;2023-03-16T09:28:24;8.70;99.90
31837;DHT22;18401;49.344;6.240;2023-03-16T09:30:52;8.80;99.90
31837;DHT22;18401;49.344;6.240;2023-03-16T09:33:19;8.90;99.90
31837;DHT22;18401;49.344;6.240;2023-03-16T09:35:45;8.90;99.90
31837;DHT22;18401;49.344;6.240;2023-03-16T09:38:11;9.20;99.90
31837;DHT22;18401;49.344;6.240;2023-03-16T09:40:37;9.20;99.90
31837;DHT22;18401;49.344;6.240;2023-03-16T09:48:38;9.20;99.90
31837;DHT22;18401;49.344;6.240;2023-03-16T09:51:11;9.30;99.90
31837;DHT22;18401;49.344;6.240;2023-03-16T09:53:39;9.70;99.90
31837;DHT22;18401;49.344;6.240;2023-03-16T09:56:09;10.20;99.90
31837;DHT22;18401;49.344;6.240;2023-03-16T09:58:36;10.50;99.90
31837;DHT22;18401;49.344;6.240;2023-03-16T10:04:21;11.30;99.90
31837;DHT22;18401;49.344;6.240;2023-03-16T10:09:51;11.10;99.90
31837;DHT22;18401;49.344;6.240;2023-03-16T10:12:20;11.20;99.90
31837;DHT22;18401;49.344;6.240;2023-03-16T10:14:49;11.80;99.90
31837;DHT22;18401;49.344;6.240;2023-03-16T10:17:28;12.40;99.90
31837;DHT22;18401;49.344;6.240;2023-03-16T10:20:06;12.50;99.90
31837;DHT22;18401;49.344;6.240;2023-03-16T10:22:38;12.80;96.40
31837;DHT22;18401;49.344;6.240;2023-03-16T10:25:21;12.70;91.50
31837;DHT22;18401;49.344;6.240;2023-03-16T10:27:48;12.90;67.90
31837;DHT22;18401;49.344;6.240;2023-03-16T10:30:27;12.80;71.70
31837;DHT22;18401;49.344;6.240;2023-03-16T10:32:55;12.70;50.90
31837;DHT22;18401;49.344;6.240;2023-03-16T10:35:40;12.70;56.30
31837;DHT22;18401;49.344;6.240;2023-03-16T10:41:38;13.70;45.70
31837;DHT22;18401;49.344;6.240;2023-03-16T10:44:15;13.70;28.00
31837;DHT22;18401;49.344;6.240;2023-03-16T10:46:47;13.90;39.30
31837;DHT22;18401;49.344;6.240;2023-03-16T10:49:25;14.60;38.00
31837;DHT22;18401;49.344;6.240;2023-03-16T10:51:59;14.70;1.00
31837;DHT22;18401;49.344;6.240;2023-03-16T10:54:30;15.00;1.00
31837;DHT22;18401;49.344;6.240;2023-03-16T10:56:58;15.60;14.50
31837;DHT22;18401;49.344;6.240;2023-03-16T10:59:33;16.20;1.00
31837;DHT22;18401;49.344;6.240;2023-03-16T11:02:17;15.80;1.00
31837;DHT22;18401;49.344;6.240;2023-03-16T11:04:45;15.20;1.00
31837;DHT22;18401;49.344;6.240;2023-03-16T11:07:19;15.00;1.00
31837;DHT22;18401;49.344;6.240;2023-03-16T11:09:50;15.00;1.00
31837;DHT22;18401;49.344;6.240;2023-03-16T11:12:30;15.60;1.00
31837;DHT22;18401;49.344;6.240;2023-03-16T11:15:12;16.20;1.00
31837;DHT22;18401;49.344;6.240;2023-03-16T11:17:42;16.00;1.00
31837;DHT22;18401;49.344;6.240;2023-03-16T11:20:19;15.70;1.00
31837;DHT22;18401;49.344;6.240;2023-03-16T11:22:46;15.40;1.00
31837;DHT22;18401;49.344;6.240;2023-03-16T11:25:30;15.10;1.00
31837;DHT22;18401;49.344;6.240;2023-03-16T11:28:37;15.20;1.00
31837;DHT22;18401;49.344;6.240;2023-03-16T11:31:17;15.00;1.00
31837;DHT22;18401;49.344;6.240;2023-03-16T11:33:44;14.60;1.00
31837;DHT22;18401;49.344;6.240;2023-03-16T11:41:41;14.90;1.00
31837;DHT22;18401;49.344;6.240;2023-03-16T11:55:58;15.60;1.00
31837;DHT22;18401;49.344;6.240;2023-03-16T12:15:23;15.80;1.00
31837;DHT22;18401;49.344;6.240;2023-03-16T12:17:53;15.30;1.00
31837;DHT22;18401;49.344;6.240;2023-03-16T12:20:27;15.30;1.00
31837;DHT22;18401;49.344;6.240;2023-03-16T12:23:07;15.30;99.90
31837;DHT22;18401;49.344;6.240;2023-03-16T12:25:36;15.40;99.90
31837;DHT22;18401;49.344;6.240;2023-03-16T12:28:10;15.70;1.00
31837;DHT22;18401;49.344;6.240;2023-03-16T12:30:42;15.80;99.90
31837;DHT22;18401;49.344;6.240;2023-03-16T12:49:06;16.30;99.90
31837;DHT22;18401;49.344;6.240;2023-03-16T12:51:38;16.20;99.90
31837;DHT22;18401;49.344;6.240;2023-03-16T12:54:05;16.20;99.90
31837;DHT22;18401;49.344;6.240;2023-03-16T12:56:43;16.40;99.90
31837;DHT22;18401;49.344;6.240;2023-03-16T12:59:22;16.70;1.00
31837;DHT22;18401;49.344;6.240;2023-03-16T13:01:50;16.20;99.90
31837;DHT22;18401;49.344;6.240;2023-03-16T13:04:18;15.50;99.90
31837;DHT22;18401;49.344;6.240;2023-03-16T13:06:47;15.10;99.90
31837;DHT22;18401;49.344;6.240;2023-03-16T13:09:26;14.70;99.90
31837;DHT22;18401;49.344;6.240;2023-03-16T13:11:55;14.50;1.00
31837;DHT22;18401;49.344;6.240;2023-03-16T13:17:04;14.30;1.00
31837;DHT22;18401;49.344;6.240;2023-03-16T13:19:31;14.40;1.00
31837;DHT22;18401;49.344;6.240;2023-03-16T13:22:25;14.60;1.00
31837;DHT22;18401;49.344;6.240;2023-03-16T13:25:10;14.80;1.00
31837;DHT22;18401;49.344;6.240;2023-03-16T13:27:38;14.80;99.90
31837;DHT22;18401;49.344;6.240;2023-03-16T13:32:42;14.50;99.90
31837;DHT22;18401;49.344;6.240;2023-03-16T13:35:13;14.50;99.90
31837;DHT22;18401;49.344;6.240;2023-03-16T13:37:41;14.40;1.00
31837;DHT22;18401;49.344;6.240;2023-03-16T13:40:18;14.30;1.00
31837;DHT22;18401;49.344;6.240;2023-03-16T13:42:47;14.60;99.90
31837;DHT22;18401;49.344;6.240;2023-03-16T13:45:31;14.60;99.90
31837;DHT22;18401;49.344;6.240;2023-03-16T13:47:59;14.50;1.00
31837;DHT22;18401;49.344;6.240;2023-03-16T13:50:26;14.70;1.00
31837;DHT22;18401;49.344;6.240;2023-03-16T13:52:58;15.20;1.00
31837;DHT22;18401;49.344;6.240;2023-03-16T13:55:33;15.40;1.00
31837;DHT22;18401;49.344;6.240;2023-03-16T13:58:01;15.80;99.90
31837;DHT22;18401;49.344;6.240;2023-03-16T14:00:35;15.80;99.90
31837;DHT22;18401;49.344;6.240;2023-03-16T14:03:17;16.20;99.90
31837;DHT22;18401;49.344;6.240;2023-03-16T14:05:43;16.20;99.90
31837;DHT22;18401;49.344;6.240;2023-03-16T14:08:26;16.30;99.90
31837;DHT22;18401;49.344;6.240;2023-03-16T14:10:53;16.80;99.90
31837;DHT22;18401;49.344;6.240;2023-03-16T14:16:15;16.20;99.90
31837;DHT22;18401;49.344;6.240;2023-03-16T14:18:45;16.30;99.90
31837;DHT22;18401;49.344;6.240;2023-03-16T14:21:23;15.90;99.90
31837;DHT22;18401;49.344;6.240;2023-03-16T14:24:22;15.50;99.90
31837;DHT22;18401;49.344;6.240;2023-03-16T14:26:51;15.60;99.90
31837;DHT22;18401;49.344;6.240;2023-03-16T14:29:26;15.00;99.90
31837;DHT22;18401;49.344;6.240;2023-03-16T14:31:53;15.00;99.90
31837;DHT22;18401;49.344;6.240;2023-03-16T14:34:34;15.00;99.90
31837;DHT22;18401;49.344;6.240;2023-03-16T14:37:15;15.60;99.90
31837;DHT22;18401;49.344;6.240;2023-03-16T14:39:43;15.90;1.00
31837;DHT22;18401;49.344;6.240;2023-03-16T14:44:49;16.80;99.90
31837;DHT22;18401;49.344;6.240;2023-03-16T14:47:21;16.90;99.90
31837;DHT22;18401;49.344;6.240;2023-03-16T14:49:48;16.70;99.90
31837;DHT22;18401;49.344;6.240;2023-03-16T14:52:26;16.60;99.90
31837;DHT22;18401;49.344;6.240;2023-03-16T14:54:54;15.60;99.90
31837;DHT22;18401;49.344;6.240;2023-03-16T14:57:20;15.30;99.90
31837;DHT22;18401;49.344;6.240;2023-03-16T14:59:46;14.90;99.90
31837;DHT22;18401;49.344;6.240;2023-03-16T15:02:16;14.80;99.90
31837;DHT22;18401;49.344;6.240;2023-03-16T15:04:43;15.10;99.90
31837;DHT22;18401;49.344;6.240;2023-03-16T15:07:22;14.80;99.90
31837;DHT22;18401;49.344;6.240;2023-03-16T15:09:50;14.70;99.90
31837;DHT22;18401;49.344;6.240;2023-03-16T15:12:18;14.60;99.90
31837;DHT22;18401;49.344;6.240;2023-03-16T15:14:44;14.40;99.90
31837;DHT22;18401;49.344;6.240;2023-03-16T15:17:29;14.30;99.90
31837;DHT22;18401;49.344;6.240;2023-03-16T15:19:54;14.40;1.00
31837;DHT22;18401;49.344;6.240;2023-03-16T15:22:27;14.40;99.90
31837;DHT22;18401;49.344;6.240;2023-03-16T15:24:54;14.30;99.90
31837;DHT22;18401;49.344;6.240;2023-03-16T15:27:23;14.50;1.00
31837;DHT22;18401;49.344;6.240;2023-03-16T15:29:50;14.80;1.00
31837;DHT22;18401;49.344;6.240;2023-03-16T15:32:15;15.20;99.90
31837;DHT22;18401;49.344;6.240;2023-03-16T15:34:42;15.60;99.90
31837;DHT22;18401;49.344;6.240;2023-03-16T15:37:15;15.60;99.90
31837;DHT22;18401;49.344;6.240;2023-03-16T15:39:42;15.30;99.90
31837;DHT22;18401;49.344;6.240;2023-03-16T15:42:17;14.90;99.90
31837;DHT22;18401;49.344;6.240;2023-03-16T15:44:44;14.70;99.90
31837;DHT22;18401;49.344;6.240;2023-03-16T15:47:10;15.00;99.90
31837;DHT22;18401;49.344;6.240;2023-03-16T15:49:37;15.10;99.90
31837;DHT22;18401;49.344;6.240;2023-03-16T15:52:04;14.90;99.90
31837;DHT22;18401;49.344;6.240;2023-03-16T15:54:32;14.80;99.90
31837;DHT22;18401;49.344;6.240;2023-03-16T15:56:59;14.30;99.90
31837;DHT22;18401;49.344;6.240;2023-03-16T15:59:25;13.80;1.00
31837;DHT22;18401;49.344;6.240;2023-03-16T16:01:53;13.70;1.00
31837;DHT22;18401;49.344;6.240;2023-03-16T16:04:20;13.90;1.00
31837;DHT22;18401;49.344;6.240;2023-03-16T16:06:48;14.20;1.00
31837;DHT22;18401;49.344;6.240;2023-03-16T16:09:15;14.00;1.00
31837;DHT22;18401;49.344;6.240;2023-03-16T16:11:41;13.70;1.00
31837;DHT22;18401;49.344;6.240;2023-03-16T16:14:12;13.40;1.00
31837;DHT22;18401;49.344;6.240;2023-03-16T16:16:41;13.10;1.00
31837;DHT22;18401;49.344;6.240;2023-03-16T16:19:12;12.90;1.00
31837;DHT22;18401;49.344;6.240;2023-03-16T16:21:38;12.80;1.00
31837;DHT22;18401;49.344;6.240;2023-03-16T16:24:04;12.70;1.00
31837;DHT22;18401;49.344;6.240;2023-03-16T16:29:01;12.50;1.00
31837;DHT22;18401;49.344;6.240;2023-03-16T16:31:30;12.40;1.00
31837;DHT22;18401;49.344;6.240;2023-03-16T16:33:56;12.20;1.00
31837;DHT22;18401;49.344;6.240;2023-03-16T16:36:23;12.10;1.60
31837;DHT22;18401;49.344;6.240;2023-03-16T16:38:49;12.00;1.00
31837;DHT22;18401;49.344;6.240;2023-03-16T16:41:30;11.90;7.60
31837;DHT22;18401;49.344;6.240;2023-03-16T16:43:56;11.80;11.20
31837;DHT22;18401;49.344;6.240;2023-03-16T16:46:24;11.80;8.00
31837;DHT22;18401;49.344;6.240;2023-03-16T16:48:58;11.70;15.20
31837;DHT22;18401;49.344;6.240;2023-03-16T16:51:27;11.60;22.40
31837;DHT22;18401;49.344;6.240;2023-03-16T16:53:58;11.50;24.00
31837;DHT22;18401;49.344;6.240;2023-03-16T16:56:30;11.50;27.80
31837;DHT22;18401;49.344;6.240;2023-03-16T16:58:59;11.30;38.20
31837;DHT22;18401;49.344;6.240;2023-03-16T17:01:31;11.20;37.30
31837;DHT22;18401;49.344;6.240;2023-03-16T17:03:59;11.20;38.80
31837;DHT22;18401;49.344;6.240;2023-03-16T17:06:25;11.10;45.70
31837;DHT22;18401;49.344;6.240;2023-03-16T17:08:52;11.00;44.10
31837;DHT22;18401;49.344;6.240;2023-03-16T17:11:23;11.00;43.90
31837;DHT22;18401;49.344;6.240;2023-03-16T17:13:50;11.00;45.40
31837;DHT22;18401;49.344;6.240;2023-03-16T17:16:19;10.90;47.30